createdAt,value
2022-10-19T00:04:09.253Z,46.67
2022-10-19T00:09:30.954Z,46.49
2022-10-19T00:14:52.622Z,46.65
2022-10-19T00:20:14.282Z,46.73
2022-10-19T00:25:37.130Z,46.27
2022-10-19T00:31:10.776Z,46.42
2022-10-19T00:36:35.928Z,46.54
2022-10-19T00:41:57.613Z,46.38
2022-10-19T00:47:23.506Z,46.35
2022-10-19T00:52:45.215Z,46.51
2022-10-19T00:58:08.061Z,46.44
2022-10-19T01:03:29.939Z,45.97
2022-10-19T01:08:51.653Z,46.18
2022-10-19T01:15:01.746Z,46.11
2022-10-19T01:20:42.294Z,46.01
2022-10-19T01:26:51.516Z,46.17
2022-10-19T01:32:36.783Z,45.96
2022-10-19T01:38:16.304Z,46.10
2022-10-19T01:43:59.482Z,46.19
2022-10-19T01:49:29.712Z,46.21
2022-10-19T01:54:57.478Z,46.32
2022-10-19T02:00:20.031Z,46.11
2022-10-19T02:05:42.707Z,46.34
2022-10-19T02:11:04.676Z,46.19
2022-10-19T02:16:34.640Z,45.84
2022-10-19T02:21:59.455Z,46.16
2022-10-19T02:27:21.556Z,45.82
2022-10-19T02:32:44.537Z,46.07
2022-10-19T02:38:09.097Z,46.12
2022-10-19T02:43:34.651Z,46.16
2022-10-19T02:48:57.242Z,45.81
2022-10-19T02:54:19.056Z,46.09
2022-10-19T02:59:40.717Z,46.07
2022-10-19T03:05:02.649Z,45.78
2022-10-19T03:10:24.607Z,46.13
2022-10-19T03:15:46.364Z,45.96
2022-10-19T03:21:11.638Z,45.58
2022-10-19T03:26:33.437Z,46.03
2022-10-19T03:31:55.683Z,45.51
2022-10-19T03:37:17.358Z,45.92
2022-10-19T03:42:38.994Z,45.76
2022-10-19T03:48:00.634Z,45.44
2022-10-19T03:53:22.305Z,45.50
2022-10-19T03:58:45.685Z,45.41
2022-10-19T04:04:14.122Z,45.27
2022-10-19T04:09:35.829Z,45.51
2022-10-19T04:14:57.915Z,45.18
2022-10-19T04:20:19.706Z,45.32
2022-10-19T04:25:41.347Z,45.02
2022-10-19T04:31:04.906Z,45.12
2022-10-19T04:36:26.664Z,44.83
2022-10-19T04:41:48.337Z,44.85
2022-10-19T04:47:09.994Z,44.87
2022-10-19T04:52:31.755Z,45.20
2022-10-19T04:57:53.411Z,45.08
2022-10-19T05:03:15.501Z,45.05
2022-10-19T05:08:37.967Z,45.10
2022-10-19T05:13:59.799Z,45.05
2022-10-19T05:19:21.465Z,44.91
2022-10-19T05:24:43.118Z,44.69
2022-10-19T05:30:06.707Z,45.06
2022-10-19T05:35:28.463Z,44.84
2022-10-19T05:40:52.968Z,44.86
2022-10-19T05:46:19.504Z,44.80
2022-10-19T05:51:41.421Z,44.67
2022-10-19T05:57:03.082Z,44.75
2022-10-19T06:02:24.849Z,45.00
2022-10-19T06:07:46.490Z,44.85
2022-10-19T06:13:08.231Z,44.85
2022-10-19T06:18:29.970Z,44.63
2022-10-19T06:23:55.985Z,44.54
2022-10-19T06:29:18.281Z,44.79
2022-10-19T06:34:39.960Z,44.98
2022-10-19T06:40:06.717Z,44.67
2022-10-19T06:45:32.282Z,44.69
2022-10-19T06:51:01.600Z,44.61
2022-10-19T06:56:24.806Z,44.28
2022-10-19T07:01:49.197Z,43.69
2022-10-19T07:07:10.889Z,42.75
2022-10-19T07:12:32.578Z,41.17
2022-10-19T07:17:54.470Z,40.68
2022-10-19T07:23:16.114Z,40.63
2022-10-19T07:28:42.188Z,40.71
2022-10-19T07:34:05.082Z,40.14
2022-10-19T07:39:27.603Z,39.07
2022-10-19T07:44:49.225Z,38.00
2022-10-19T07:50:10.962Z,36.08
2022-10-19T07:55:34.649Z,36.89
2022-10-19T08:01:04.508Z,34.93
2022-10-19T08:06:26.459Z,34.36
2022-10-19T08:11:48.123Z,32.87
2022-10-19T08:17:12.087Z,31.52
2022-10-19T08:22:34.315Z,33.10
2022-10-19T08:27:56.265Z,35.49
2022-10-19T08:33:17.909Z,36.77
2022-10-19T08:38:40.311Z,37.39
2022-10-19T08:44:10.199Z,38.10
2022-10-19T08:49:32.671Z,38.30
2022-10-19T08:55:29.745Z,38.99
2022-10-19T09:01:01.065Z,39.49
2022-10-19T09:06:45.070Z,39.52
2022-10-19T09:12:08.039Z,39.94
2022-10-19T09:17:31.430Z,40.49
2022-10-19T09:23:08.686Z,40.74
2022-10-19T09:28:52.525Z,40.68
2022-10-19T09:34:26.038Z,40.86
2022-10-19T09:39:53.927Z,41.16
2022-10-19T09:45:38.203Z,41.26
2022-10-19T09:51:02.748Z,41.59
2022-10-19T09:56:26.499Z,41.89
2022-10-19T10:02:00.822Z,41.80
2022-10-19T10:07:27.643Z,41.65
2022-10-19T10:12:49.695Z,42.22
2022-10-19T10:18:16.606Z,42.35
2022-10-19T10:23:38.377Z,42.12
2022-10-19T10:29:01.483Z,42.46
2022-10-19T10:34:45.349Z,42.09
2022-10-19T10:40:30.094Z,42.08
2022-10-19T10:45:54.604Z,42.52
2022-10-19T10:51:42.978Z,42.53
2022-10-19T10:57:20.689Z,42.29
2022-10-19T11:02:58.701Z,42.71
2022-10-19T11:08:36.132Z,42.43
2022-10-19T11:14:07.575Z,42.66
2022-10-19T11:19:43.257Z,42.77
2022-10-19T11:25:36.191Z,42.40
2022-10-19T11:31:10.990Z,42.70
2022-10-19T11:37:04.866Z,42.20
2022-10-19T11:43:11.562Z,42.11
2022-10-19T11:48:34.105Z,42.22
2022-10-19T11:54:14.691Z,42.38
2022-10-19T11:59:43.372Z,42.44
2022-10-19T12:05:12.734Z,42.24
2022-10-19T12:11:02.630Z,42.39
2022-10-19T12:16:42.296Z,42.44
2022-10-19T12:22:07.273Z,42.49
2022-10-19T12:27:41.815Z,42.03
2022-10-19T12:33:25.815Z,42.28
2022-10-19T12:39:23.359Z,42.17
2022-10-19T12:45:06.674Z,41.80
2022-10-19T12:50:49.971Z,41.87
2022-10-19T12:56:26.927Z,41.89
2022-10-19T13:01:48.734Z,41.64
2022-10-19T13:07:18.339Z,41.60
2022-10-19T13:12:46.346Z,42.08
2022-10-19T13:18:24.047Z,41.65
2022-10-19T13:23:46.789Z,41.91
2022-10-19T13:29:25.139Z,41.64
2022-10-19T13:34:47.360Z,41.49
2022-10-19T13:40:23.764Z,41.38
2022-10-19T13:45:59.367Z,41.76
2022-10-19T13:51:43.941Z,41.48
2022-10-19T13:57:20.402Z,41.63
2022-10-19T14:03:12.778Z,41.18
2022-10-19T14:08:58.941Z,41.28
2022-10-19T14:14:23.685Z,41.32
2022-10-19T14:19:52.452Z,41.68
2022-10-19T14:25:23.153Z,41.72
2022-10-19T14:30:44.822Z,41.60
2022-10-19T14:36:13.919Z,41.73
2022-10-19T14:41:37.549Z,41.66
2022-10-19T14:47:01.933Z,41.40
2022-10-19T14:52:31.872Z,41.56
2022-10-19T14:57:54.291Z,42.13
2022-10-19T15:03:29.570Z,41.95
2022-10-19T15:09:03.876Z,41.97
2022-10-19T15:14:30.995Z,42.11
2022-10-19T15:19:56.051Z,42.07
2022-10-19T15:25:43.884Z,41.93
2022-10-19T15:31:18.511Z,42.35
2022-10-19T15:36:55.386Z,42.02
2022-10-19T15:42:39.109Z,42.31
2022-10-19T15:48:09.689Z,42.40
2022-10-19T15:53:31.385Z,42.22
2022-10-19T15:58:55.241Z,42.04
2022-10-19T16:04:17.703Z,41.94
2022-10-19T16:09:39.324Z,42.22
2022-10-19T16:15:01.047Z,42.11
2022-10-19T16:20:23.743Z,42.34
2022-10-19T16:25:45.423Z,42.14
2022-10-19T16:31:07.350Z,42.17
2022-10-19T16:36:29.054Z,42.23
2022-10-19T16:41:50.706Z,42.29
2022-10-19T16:47:12.345Z,42.15
2022-10-19T16:52:34.602Z,41.93
2022-10-19T16:57:56.643Z,42.36
2022-10-19T17:03:18.328Z,42.34
2022-10-19T17:09:07.389Z,42.39
2022-10-19T17:14:22.275Z,42.48
2022-10-19T17:19:43.932Z,42.05
2022-10-19T17:25:06.133Z,42.14
2022-10-19T17:30:27.819Z,41.96
2022-10-19T17:35:49.460Z,42.39
2022-10-19T17:41:15.021Z,42.19
2022-10-19T17:46:36.882Z,42.04
2022-10-19T17:51:58.648Z,42.46
2022-10-19T17:57:20.339Z,42.63
2022-10-19T18:02:44.629Z,42.48
2022-10-19T18:08:06.394Z,42.66
2022-10-19T18:13:29.089Z,42.50
2022-10-19T18:18:53.560Z,42.31
2022-10-19T18:24:19.694Z,42.59
2022-10-19T18:29:41.350Z,42.33
2022-10-19T18:35:03.072Z,42.19
2022-10-19T18:40:24.795Z,41.68
2022-10-19T18:45:58.102Z,41.41
2022-10-19T18:51:21.332Z,41.40
2022-10-19T18:56:43.065Z,41.27
2022-10-19T19:02:05.838Z,41.32
2022-10-19T19:07:27.674Z,41.05
2022-10-19T19:12:51.085Z,41.30
2022-10-19T19:18:12.858Z,41.12
2022-10-19T19:23:34.665Z,41.70
2022-10-19T19:28:57.675Z,41.69
2022-10-19T19:34:19.573Z,42.07
2022-10-19T19:39:41.460Z,42.14
2022-10-19T19:45:03.314Z,42.37
2022-10-19T19:50:25.059Z,42.09
2022-10-19T19:55:48.419Z,42.47
2022-10-19T20:01:16.062Z,42.29
2022-10-19T20:06:39.305Z,42.60
2022-10-19T20:12:00.986Z,42.65
2022-10-19T20:17:23.999Z,42.54
2022-10-19T20:22:47.357Z,42.69
2022-10-19T20:28:09.017Z,42.69
2022-10-19T20:33:32.408Z,42.88
2022-10-19T20:38:56.356Z,42.93
2022-10-19T20:44:18.016Z,42.56
2022-10-19T20:49:40.971Z,43.09
2022-10-19T20:55:02.640Z,43.19
2022-10-19T21:00:24.325Z,43.16
2022-10-19T21:05:45.941Z,43.47
2022-10-19T21:11:26.499Z,43.50
2022-10-19T21:16:48.533Z,43.82
2022-10-19T21:22:11.735Z,43.48
2022-10-19T21:27:33.655Z,43.46
2022-10-19T21:32:55.648Z,43.50
2022-10-19T21:38:17.258Z,43.56
2022-10-19T21:43:39.511Z,43.93
2022-10-19T21:49:01.320Z,43.65
2022-10-19T21:54:25.463Z,43.52
2022-10-19T21:59:47.157Z,44.10
2022-10-19T22:05:08.968Z,44.12
2022-10-19T22:10:30.989Z,43.96
2022-10-19T22:15:52.657Z,43.73
2022-10-19T22:21:17.201Z,43.76
2022-10-19T22:26:42.773Z,43.85
2022-10-19T22:32:04.579Z,43.78
2022-10-19T22:37:26.262Z,44.31
2022-10-19T22:42:47.943Z,43.94
2022-10-19T22:48:09.772Z,44.20
2022-10-19T22:53:31.448Z,44.04
2022-10-19T22:58:53.140Z,44.20
2022-10-19T23:04:14.888Z,44.31
2022-10-19T23:09:37.381Z,44.32
2022-10-19T23:14:59.119Z,43.88
2022-10-19T23:20:20.881Z,44.29
2022-10-19T23:25:42.737Z,44.13
2022-10-19T23:31:07.887Z,43.86
2022-10-19T23:36:29.990Z,44.04
2022-10-19T23:41:51.692Z,43.94
2022-10-19T23:47:13.394Z,44.22
2022-10-19T23:52:35.074Z,43.94
2022-10-19T23:57:56.808Z,44.32
